sensor_id;sensor_type;location;lat;lon;timestamp;P1;durP1;ratioP1;P2;durP2;ratioP2
52982;SDS011;48698;45.736;13.926;2022-08-19T00:01:41;8.48;;;2.95;;
52982;SDS011;48698;45.736;13.926;2022-08-19T00:06:53;12.50;;;3.30;;
52982;SDS011;48698;45.736;13.926;2022-08-19T00:11:57;9.57;;;3.58;;
52982;SDS011;48698;45.736;13.926;2022-08-19T00:17:00;11.80;;;3.17;;
52982;SDS011;48698;45.736;13.926;2022-08-19T00:22:03;10.00;;;2.42;;
52982;SDS011;48698;45.736;13.926;2022-08-19T00:32:27;9.88;;;2.70;;
52982;SDS011;48698;45.736;13.926;2022-08-19T00:37:31;8.07;;;2.63;;
52982;SDS011;48698;45.736;13.926;2022-08-19T00:42:35;9.93;;;3.10;;
52982;SDS011;48698;45.736;13.926;2022-08-19T00:47:38;13.35;;;3.00;;
52982;SDS011;48698;45.736;13.926;2022-08-19T00:52:42;7.77;;;2.97;;
52982;SDS011;48698;45.736;13.926;2022-08-19T00:57:52;8.00;;;3.20;;
52982;SDS011;48698;45.736;13.926;2022-08-19T01:02:57;11.25;;;3.47;;
52982;SDS011;48698;45.736;13.926;2022-08-19T01:08:02;10.82;;;3.75;;
52982;SDS011;48698;45.736;13.926;2022-08-19T01:13:10;9.23;;;3.60;;
52982;SDS011;48698;45.736;13.926;2022-08-19T01:18:15;9.38;;;3.38;;
52982;SDS011;48698;45.736;13.926;2022-08-19T01:23:20;12.32;;;3.90;;
52982;SDS011;48698;45.736;13.926;2022-08-19T01:28:24;17.73;;;4.78;;
52982;SDS011;48698;45.736;13.926;2022-08-19T01:33:34;23.67;;;7.30;;
52982;SDS011;48698;45.736;13.926;2022-08-19T01:38:38;32.20;;;8.85;;
52982;SDS011;48698;45.736;13.926;2022-08-19T01:43:45;20.05;;;7.55;;
52982;SDS011;48698;45.736;13.926;2022-08-19T01:49:08;29.52;;;7.57;;
52982;SDS011;48698;45.736;13.926;2022-08-19T01:54:13;21.30;;;8.25;;
52982;SDS011;48698;45.736;13.926;2022-08-19T01:59:28;20.35;;;8.52;;
52982;SDS011;48698;45.736;13.926;2022-08-19T02:04:33;19.67;;;7.63;;
52982;SDS011;48698;45.736;13.926;2022-08-19T02:09:39;19.05;;;7.95;;
52982;SDS011;48698;45.736;13.926;2022-08-19T02:14:42;18.85;;;7.53;;
52982;SDS011;48698;45.736;13.926;2022-08-19T02:19:45;19.98;;;7.70;;
52982;SDS011;48698;45.736;13.926;2022-08-19T02:24:48;18.43;;;8.23;;
52982;SDS011;48698;45.736;13.926;2022-08-19T02:29:52;26.80;;;11.35;;
52982;SDS011;48698;45.736;13.926;2022-08-19T02:34:55;36.63;;;10.57;;
52982;SDS011;48698;45.736;13.926;2022-08-19T02:39:58;14.68;;;6.82;;
52982;SDS011;48698;45.736;13.926;2022-08-19T02:45:01;10.97;;;5.43;;
52982;SDS011;48698;45.736;13.926;2022-08-19T02:50:05;11.37;;;5.37;;
52982;SDS011;48698;45.736;13.926;2022-08-19T02:55:08;14.85;;;4.75;;
52982;SDS011;48698;45.736;13.926;2022-08-19T03:00:11;12.23;;;4.90;;
52982;SDS011;48698;45.736;13.926;2022-08-19T03:05:16;14.07;;;6.00;;
52982;SDS011;48698;45.736;13.926;2022-08-19T03:10:28;11.60;;;5.53;;
52982;SDS011;48698;45.736;13.926;2022-08-19T03:15:31;14.15;;;5.93;;
52982;SDS011;48698;45.736;13.926;2022-08-19T03:20:39;14.23;;;3.85;;
52982;SDS011;48698;45.736;13.926;2022-08-19T03:25:47;12.63;;;4.75;;
52982;SDS011;48698;45.736;13.926;2022-08-19T03:31:11;12.02;;;4.95;;
52982;SDS011;48698;45.736;13.926;2022-08-19T03:36:35;10.90;;;4.82;;
52982;SDS011;48698;45.736;13.926;2022-08-19T03:41:39;15.43;;;4.88;;
52982;SDS011;48698;45.736;13.926;2022-08-19T03:46:49;9.75;;;4.85;;
52982;SDS011;48698;45.736;13.926;2022-08-19T03:51:55;13.00;;;5.20;;
52982;SDS011;48698;45.736;13.926;2022-08-19T03:57:00;19.27;;;8.68;;
52982;SDS011;48698;45.736;13.926;2022-08-19T04:02:05;15.70;;;8.07;;
52982;SDS011;48698;45.736;13.926;2022-08-19T04:07:12;36.50;;;10.15;;
52982;SDS011;48698;45.736;13.926;2022-08-19T04:12:18;32.50;;;8.65;;
52982;SDS011;48698;45.736;13.926;2022-08-19T04:17:22;25.60;;;7.75;;
52982;SDS011;48698;45.736;13.926;2022-08-19T04:22:25;16.25;;;6.32;;
52982;SDS011;48698;45.736;13.926;2022-08-19T04:27:29;22.33;;;7.93;;
52982;SDS011;48698;45.736;13.926;2022-08-19T04:32:33;13.93;;;5.43;;
52982;SDS011;48698;45.736;13.926;2022-08-19T04:37:37;17.00;;;5.03;;
52982;SDS011;48698;45.736;13.926;2022-08-19T04:42:40;22.67;;;5.22;;
52982;SDS011;48698;45.736;13.926;2022-08-19T04:47:44;9.95;;;4.20;;
52982;SDS011;48698;45.736;13.926;2022-08-19T04:52:58;11.00;;;3.85;;
52982;SDS011;48698;45.736;13.926;2022-08-19T04:58:01;9.23;;;3.03;;
52982;SDS011;48698;45.736;13.926;2022-08-19T05:03:04;5.88;;;1.50;;
52982;SDS011;48698;45.736;13.926;2022-08-19T05:08:08;4.53;;;1.40;;
52982;SDS011;48698;45.736;13.926;2022-08-19T05:13:15;2.42;;;1.15;;
52982;SDS011;48698;45.736;13.926;2022-08-19T05:18:20;3.88;;;1.02;;
52982;SDS011;48698;45.736;13.926;2022-08-19T05:23:42;3.20;;;1.15;;
52982;SDS011;48698;45.736;13.926;2022-08-19T05:28:44;2.45;;;0.90;;
52982;SDS011;48698;45.736;13.926;2022-08-19T05:33:47;1.83;;;0.90;;
52982;SDS011;48698;45.736;13.926;2022-08-19T05:38:50;3.58;;;1.00;;
52982;SDS011;48698;45.736;13.926;2022-08-19T05:43:53;5.47;;;1.65;;
52982;SDS011;48698;45.736;13.926;2022-08-19T05:48:56;5.25;;;1.50;;
52982;SDS011;48698;45.736;13.926;2022-08-19T05:54:00;5.05;;;1.58;;
52982;SDS011;48698;45.736;13.926;2022-08-19T05:59:04;7.85;;;3.00;;
52982;SDS011;48698;45.736;13.926;2022-08-19T06:04:12;5.38;;;2.30;;
52982;SDS011;48698;45.736;13.926;2022-08-19T06:09:19;5.00;;;1.85;;
52982;SDS011;48698;45.736;13.926;2022-08-19T06:19:29;4.38;;;1.33;;
52982;SDS011;48698;45.736;13.926;2022-08-19T06:24:32;5.72;;;1.25;;
52982;SDS011;48698;45.736;13.926;2022-08-19T06:29:37;4.13;;;1.50;;
52982;SDS011;48698;45.736;13.926;2022-08-19T06:34:40;4.07;;;1.20;;
52982;SDS011;48698;45.736;13.926;2022-08-19T06:39:44;3.65;;;1.10;;
52982;SDS011;48698;45.736;13.926;2022-08-19T06:44:47;3.08;;;0.90;;
52982;SDS011;48698;45.736;13.926;2022-08-19T06:49:57;5.90;;;1.40;;
52982;SDS011;48698;45.736;13.926;2022-08-19T06:55:06;2.90;;;0.98;;
52982;SDS011;48698;45.736;13.926;2022-08-19T07:00:09;4.53;;;0.88;;
52982;SDS011;48698;45.736;13.926;2022-08-19T07:05:16;3.92;;;0.95;;
52982;SDS011;48698;45.736;13.926;2022-08-19T07:10:20;3.70;;;1.10;;
52982;SDS011;48698;45.736;13.926;2022-08-19T07:15:26;3.75;;;1.20;;
52982;SDS011;48698;45.736;13.926;2022-08-19T07:20:29;4.40;;;1.23;;
52982;SDS011;48698;45.736;13.926;2022-08-19T07:25:32;4.32;;;1.10;;
52982;SDS011;48698;45.736;13.926;2022-08-19T07:30:36;8.38;;;1.00;;
52982;SDS011;48698;45.736;13.926;2022-08-19T07:35:39;4.65;;;1.05;;
52982;SDS011;48698;45.736;13.926;2022-08-19T07:40:43;8.18;;;1.50;;
52982;SDS011;48698;45.736;13.926;2022-08-19T07:45:48;3.47;;;0.88;;
52982;SDS011;48698;45.736;13.926;2022-08-19T07:50:52;5.63;;;1.55;;
52982;SDS011;48698;45.736;13.926;2022-08-19T07:55:59;6.00;;;1.13;;
52982;SDS011;48698;45.736;13.926;2022-08-19T08:01:06;5.15;;;1.10;;
52982;SDS011;48698;45.736;13.926;2022-08-19T08:06:13;6.68;;;1.25;;
52982;SDS011;48698;45.736;13.926;2022-08-19T08:11:40;7.60;;;1.15;;
52982;SDS011;48698;45.736;13.926;2022-08-19T08:16:51;3.88;;;1.08;;
52982;SDS011;48698;45.736;13.926;2022-08-19T08:21:56;6.05;;;1.20;;
52982;SDS011;48698;45.736;13.926;2022-08-19T08:27:00;5.10;;;1.30;;
52982;SDS011;48698;45.736;13.926;2022-08-19T08:32:11;3.92;;;0.93;;
52982;SDS011;48698;45.736;13.926;2022-08-19T08:37:15;5.47;;;1.02;;
52982;SDS011;48698;45.736;13.926;2022-08-19T08:42:23;4.28;;;1.13;;
52982;SDS011;48698;45.736;13.926;2022-08-19T08:47:37;7.18;;;1.20;;
52982;SDS011;48698;45.736;13.926;2022-08-19T08:52:57;4.50;;;1.17;;
52982;SDS011;48698;45.736;13.926;2022-08-19T08:58:03;7.72;;;1.50;;
52982;SDS011;48698;45.736;13.926;2022-08-19T09:03:15;5.95;;;1.05;;
52982;SDS011;48698;45.736;13.926;2022-08-19T09:18:44;11.32;;;1.83;;
52982;SDS011;48698;45.736;13.926;2022-08-19T09:23:55;9.63;;;1.80;;
52982;SDS011;48698;45.736;13.926;2022-08-19T09:28:58;13.23;;;2.13;;
52982;SDS011;48698;45.736;13.926;2022-08-19T09:39:06;23.83;;;4.40;;
52982;SDS011;48698;45.736;13.926;2022-08-19T09:44:17;18.73;;;4.78;;
52982;SDS011;48698;45.736;13.926;2022-08-19T09:49:20;22.40;;;5.40;;
52982;SDS011;48698;45.736;13.926;2022-08-19T09:54:27;24.13;;;4.35;;
52982;SDS011;48698;45.736;13.926;2022-08-19T10:09:56;19.17;;;3.75;;
52982;SDS011;48698;45.736;13.926;2022-08-19T10:14:59;21.23;;;4.25;;
52982;SDS011;48698;45.736;13.926;2022-08-19T10:24:48;25.73;;;4.80;;
52982;SDS011;48698;45.736;13.926;2022-08-19T10:29:52;23.10;;;4.97;;
52982;SDS011;48698;45.736;13.926;2022-08-19T10:34:56;26.60;;;4.38;;
52982;SDS011;48698;45.736;13.926;2022-08-19T10:39:59;23.33;;;4.95;;
52982;SDS011;48698;45.736;13.926;2022-08-19T10:45:03;29.00;;;5.65;;
52982;SDS011;48698;45.736;13.926;2022-08-19T10:50:08;26.95;;;5.43;;
52982;SDS011;48698;45.736;13.926;2022-08-19T10:55:32;31.83;;;6.22;;
52982;SDS011;48698;45.736;13.926;2022-08-19T11:00:55;29.17;;;5.93;;
52982;SDS011;48698;45.736;13.926;2022-08-19T11:06:10;39.40;;;8.07;;
52982;SDS011;48698;45.736;13.926;2022-08-19T11:11:14;28.10;;;7.72;;
52982;SDS011;48698;45.736;13.926;2022-08-19T11:52:26;8.75;;;2.97;;
52982;SDS011;48698;45.736;13.926;2022-08-19T11:57:31;5.50;;;1.80;;
52982;SDS011;48698;45.736;13.926;2022-08-19T12:02:39;6.85;;;2.42;;
52982;SDS011;48698;45.736;13.926;2022-08-19T12:07:43;5.43;;;1.80;;
52982;SDS011;48698;45.736;13.926;2022-08-19T12:12:46;6.13;;;1.90;;
52982;SDS011;48698;45.736;13.926;2022-08-19T12:18:00;5.78;;;2.00;;
52982;SDS011;48698;45.736;13.926;2022-08-19T12:23:04;15.88;;;3.90;;
52982;SDS011;48698;45.736;13.926;2022-08-19T12:28:09;13.45;;;3.45;;
52982;SDS011;48698;45.736;13.926;2022-08-19T12:39:00;12.00;;;3.17;;
52982;SDS011;48698;45.736;13.926;2022-08-19T12:48:47;12.52;;;3.33;;
52982;SDS011;48698;45.736;13.926;2022-08-19T12:53:56;15.18;;;3.80;;
52982;SDS011;48698;45.736;13.926;2022-08-19T13:06:13;10.05;;;2.47;;
52982;SDS011;48698;45.736;13.926;2022-08-19T13:11:21;10.70;;;2.60;;
52982;SDS011;48698;45.736;13.926;2022-08-19T13:16:27;10.45;;;2.58;;
52982;SDS011;48698;45.736;13.926;2022-08-19T13:21:32;7.55;;;2.60;;
52982;SDS011;48698;45.736;13.926;2022-08-19T13:26:37;11.13;;;3.13;;
52982;SDS011;48698;45.736;13.926;2022-08-19T13:31:40;7.43;;;2.30;;
52982;SDS011;48698;45.736;13.926;2022-08-19T13:42:08;9.27;;;2.30;;
52982;SDS011;48698;45.736;13.926;2022-08-19T13:47:13;8.27;;;2.28;;
52982;SDS011;48698;45.736;13.926;2022-08-19T13:52:17;6.22;;;2.17;;
52982;SDS011;48698;45.736;13.926;2022-08-19T13:57:21;6.68;;;2.30;;
52982;SDS011;48698;45.736;13.926;2022-08-19T14:02:25;9.45;;;2.20;;
52982;SDS011;48698;45.736;13.926;2022-08-19T14:07:29;8.25;;;2.38;;
52982;SDS011;48698;45.736;13.926;2022-08-19T14:12:32;13.85;;;2.22;;
52982;SDS011;48698;45.736;13.926;2022-08-19T14:17:39;11.50;;;2.65;;
52982;SDS011;48698;45.736;13.926;2022-08-19T14:22:47;9.80;;;2.47;;
52982;SDS011;48698;45.736;13.926;2022-08-19T14:27:51;8.77;;;2.85;;
52982;SDS011;48698;45.736;13.926;2022-08-19T14:32:55;12.57;;;3.25;;
52982;SDS011;48698;45.736;13.926;2022-08-19T14:38:02;10.50;;;3.28;;
52982;SDS011;48698;45.736;13.926;2022-08-19T14:43:07;11.75;;;3.17;;
52982;SDS011;48698;45.736;13.926;2022-08-19T14:48:11;12.18;;;2.92;;
52982;SDS011;48698;45.736;13.926;2022-08-19T14:53:21;10.80;;;2.90;;
52982;SDS011;48698;45.736;13.926;2022-08-19T14:58:24;10.63;;;3.38;;
52982;SDS011;48698;45.736;13.926;2022-08-19T15:03:31;16.88;;;2.80;;
52982;SDS011;48698;45.736;13.926;2022-08-19T15:08:35;10.32;;;2.60;;
52982;SDS011;48698;45.736;13.926;2022-08-19T15:13:42;10.65;;;3.00;;
52982;SDS011;48698;45.736;13.926;2022-08-19T15:18:48;10.43;;;2.88;;
52982;SDS011;48698;45.736;13.926;2022-08-19T15:23:57;8.52;;;2.63;;
52982;SDS011;48698;45.736;13.926;2022-08-19T15:29:01;13.10;;;6.40;;
52982;SDS011;48698;45.736;13.926;2022-08-19T15:34:06;11.18;;;2.85;;
52982;SDS011;48698;45.736;13.926;2022-08-19T15:39:09;8.88;;;2.60;;
52982;SDS011;48698;45.736;13.926;2022-08-19T15:44:14;7.40;;;2.83;;
52982;SDS011;48698;45.736;13.926;2022-08-19T15:49:20;7.72;;;2.58;;
52982;SDS011;48698;45.736;13.926;2022-08-19T15:54:24;12.88;;;3.00;;
52982;SDS011;48698;45.736;13.926;2022-08-19T15:59:27;9.52;;;2.92;;
52982;SDS011;48698;45.736;13.926;2022-08-19T16:04:51;7.75;;;1.80;;
52982;SDS011;48698;45.736;13.926;2022-08-19T16:10:14;7.03;;;2.15;;
52982;SDS011;48698;45.736;13.926;2022-08-19T16:15:28;5.13;;;1.63;;
52982;SDS011;48698;45.736;13.926;2022-08-19T16:20:32;8.45;;;1.88;;
52982;SDS011;48698;45.736;13.926;2022-08-19T16:25:37;7.60;;;2.15;;
52982;SDS011;48698;45.736;13.926;2022-08-19T16:30:41;7.00;;;2.20;;
52982;SDS011;48698;45.736;13.926;2022-08-19T16:35:52;9.45;;;2.00;;
52982;SDS011;48698;45.736;13.926;2022-08-19T16:41:01;7.80;;;1.88;;
52982;SDS011;48698;45.736;13.926;2022-08-19T16:46:05;8.60;;;2.08;;
52982;SDS011;48698;45.736;13.926;2022-08-19T16:51:09;8.88;;;1.90;;
52982;SDS011;48698;45.736;13.926;2022-08-19T16:56:13;8.00;;;2.00;;
52982;SDS011;48698;45.736;13.926;2022-08-19T17:01:17;7.60;;;1.60;;
52982;SDS011;48698;45.736;13.926;2022-08-19T17:06:21;5.35;;;1.63;;
52982;SDS011;48698;45.736;13.926;2022-08-19T17:11:29;6.07;;;1.45;;
52982;SDS011;48698;45.736;13.926;2022-08-19T17:16:35;10.70;;;1.95;;
52982;SDS011;48698;45.736;13.926;2022-08-19T17:26:42;6.45;;;1.33;;
52982;SDS011;48698;45.736;13.926;2022-08-19T17:31:46;5.30;;;1.42;;
52982;SDS011;48698;45.736;13.926;2022-08-19T17:41:52;5.97;;;1.70;;
52982;SDS011;48698;45.736;13.926;2022-08-19T17:46:57;8.07;;;1.88;;
52982;SDS011;48698;45.736;13.926;2022-08-19T17:52:00;7.10;;;1.80;;
52982;SDS011;48698;45.736;13.926;2022-08-19T17:57:10;6.90;;;1.77;;
52982;SDS011;48698;45.736;13.926;2022-08-19T18:02:14;13.75;;;2.22;;
52982;SDS011;48698;45.736;13.926;2022-08-19T18:07:22;4.30;;;1.70;;
52982;SDS011;48698;45.736;13.926;2022-08-19T18:12:26;7.90;;;1.92;;
52982;SDS011;48698;45.736;13.926;2022-08-19T18:17:29;6.95;;;1.98;;
52982;SDS011;48698;45.736;13.926;2022-08-19T18:22:34;8.18;;;1.90;;
52982;SDS011;48698;45.736;13.926;2022-08-19T18:27:39;6.93;;;1.98;;
52982;SDS011;48698;45.736;13.926;2022-08-19T18:32:45;5.40;;;2.00;;
52982;SDS011;48698;45.736;13.926;2022-08-19T18:37:51;7.82;;;1.88;;
52982;SDS011;48698;45.736;13.926;2022-08-19T18:42:54;6.20;;;2.22;;
52982;SDS011;48698;45.736;13.926;2022-08-19T18:48:16;8.95;;;3.28;;
52982;SDS011;48698;45.736;13.926;2022-08-19T18:53:39;8.52;;;2.08;;
52982;SDS011;48698;45.736;13.926;2022-08-19T18:58:43;8.23;;;2.50;;
52982;SDS011;48698;45.736;13.926;2022-08-19T19:03:48;8.15;;;2.15;;
52982;SDS011;48698;45.736;13.926;2022-08-19T19:08:56;10.27;;;2.85;;
52982;SDS011;48698;45.736;13.926;2022-08-19T19:19:06;9.15;;;2.80;;
52982;SDS011;48698;45.736;13.926;2022-08-19T19:24:09;5.93;;;2.80;;
52982;SDS011;48698;45.736;13.926;2022-08-19T19:29:16;6.50;;;2.90;;
52982;SDS011;48698;45.736;13.926;2022-08-19T19:34:21;10.07;;;4.20;;
52982;SDS011;48698;45.736;13.926;2022-08-19T19:39:31;7.85;;;2.40;;
52982;SDS011;48698;45.736;13.926;2022-08-19T19:44:51;9.85;;;3.20;;
52982;SDS011;48698;45.736;13.926;2022-08-19T19:49:56;7.00;;;2.65;;
52982;SDS011;48698;45.736;13.926;2022-08-19T19:55:17;8.55;;;3.30;;
52982;SDS011;48698;45.736;13.926;2022-08-19T20:00:21;9.43;;;3.33;;
52982;SDS011;48698;45.736;13.926;2022-08-19T20:05:25;7.40;;;3.28;;
52982;SDS011;48698;45.736;13.926;2022-08-19T20:10:29;7.72;;;2.92;;
52982;SDS011;48698;45.736;13.926;2022-08-19T20:15:34;7.22;;;3.00;;
52982;SDS011;48698;45.736;13.926;2022-08-19T20:20:43;10.40;;;4.00;;
52982;SDS011;48698;45.736;13.926;2022-08-19T20:25:48;8.15;;;3.65;;
52982;SDS011;48698;45.736;13.926;2022-08-19T20:30:52;9.20;;;3.50;;
52982;SDS011;48698;45.736;13.926;2022-08-19T20:35:56;11.03;;;3.70;;
52982;SDS011;48698;45.736;13.926;2022-08-19T20:41:02;8.77;;;3.72;;
52982;SDS011;48698;45.736;13.926;2022-08-19T20:46:06;9.77;;;3.58;;
52982;SDS011;48698;45.736;13.926;2022-08-19T20:51:10;7.77;;;4.23;;
52982;SDS011;48698;45.736;13.926;2022-08-19T20:56:13;9.77;;;3.88;;
52982;SDS011;48698;45.736;13.926;2022-08-19T21:01:17;8.73;;;3.85;;
52982;SDS011;48698;45.736;13.926;2022-08-19T21:06:20;8.88;;;3.58;;
52982;SDS011;48698;45.736;13.926;2022-08-19T21:11:24;10.18;;;3.97;;
52982;SDS011;48698;45.736;13.926;2022-08-19T21:16:27;10.20;;;3.47;;
52982;SDS011;48698;45.736;13.926;2022-08-19T21:21:31;14.80;;;3.90;;
52982;SDS011;48698;45.736;13.926;2022-08-19T21:26:35;9.35;;;4.43;;
52982;SDS011;48698;45.736;13.926;2022-08-19T21:31:38;10.20;;;3.70;;
52982;SDS011;48698;45.736;13.926;2022-08-19T21:36:41;12.93;;;4.10;;
52982;SDS011;48698;45.736;13.926;2022-08-19T21:41:45;7.47;;;3.55;;
52982;SDS011;48698;45.736;13.926;2022-08-19T21:46:48;7.40;;;4.10;;
52982;SDS011;48698;45.736;13.926;2022-08-19T21:51:52;9.80;;;4.28;;
52982;SDS011;48698;45.736;13.926;2022-08-19T21:56:55;323.10;;;15.32;;
52982;SDS011;48698;45.736;13.926;2022-08-19T22:01:59;12.10;;;3.90;;
52982;SDS011;48698;45.736;13.926;2022-08-19T22:07:21;9.90;;;3.92;;
52982;SDS011;48698;45.736;13.926;2022-08-19T22:12:30;9.25;;;4.60;;
52982;SDS011;48698;45.736;13.926;2022-08-19T22:17:36;8.43;;;3.88;;
52982;SDS011;48698;45.736;13.926;2022-08-19T22:22:46;6.65;;;3.35;;
52982;SDS011;48698;45.736;13.926;2022-08-19T22:27:51;8.35;;;3.53;;
52982;SDS011;48698;45.736;13.926;2022-08-19T22:32:58;9.82;;;3.67;;
52982;SDS011;48698;45.736;13.926;2022-08-19T22:38:03;7.75;;;4.07;;
52982;SDS011;48698;45.736;13.926;2022-08-19T22:43:09;9.98;;;3.45;;
52982;SDS011;48698;45.736;13.926;2022-08-19T22:48:17;6.85;;;3.45;;
52982;SDS011;48698;45.736;13.926;2022-08-19T22:53:25;8.63;;;3.63;;
52982;SDS011;48698;45.736;13.926;2022-08-19T22:58:28;10.52;;;4.03;;
52982;SDS011;48698;45.736;13.926;2022-08-19T23:03:32;11.88;;;4.28;;
52982;SDS011;48698;45.736;13.926;2022-08-19T23:08:36;13.32;;;3.80;;
52982;SDS011;48698;45.736;13.926;2022-08-19T23:13:41;12.73;;;4.00;;
52982;SDS011;48698;45.736;13.926;2022-08-19T23:18:45;11.20;;;3.70;;
52982;SDS011;48698;45.736;13.926;2022-08-19T23:23:49;9.63;;;3.60;;
52982;SDS011;48698;45.736;13.926;2022-08-19T23:28:52;8.43;;;3.73;;
52982;SDS011;48698;45.736;13.926;2022-08-19T23:34:14;11.65;;;3.92;;
52982;SDS011;48698;45.736;13.926;2022-08-19T23:39:18;10.73;;;4.20;;
52982;SDS011;48698;45.736;13.926;2022-08-19T23:44:21;10.98;;;4.80;;
52982;SDS011;48698;45.736;13.926;2022-08-19T23:49:26;7.70;;;3.92;;
52982;SDS011;48698;45.736;13.926;2022-08-19T23:54:29;11.02;;;4.30;;
52982;SDS011;48698;45.736;13.926;2022-08-19T23:59:44;10.23;;;4.40;;
